createdAt,value
2023-01-31T00:00:20.804Z,95.93
2023-01-31T00:02:23.535Z,96.15
2023-01-31T00:04:26.169Z,95.45
2023-01-31T00:06:35.031Z,95.23
2023-01-31T00:08:37.758Z,95.08
2023-01-31T00:10:40.414Z,94.55
2023-01-31T00:12:43.076Z,94.84
2023-01-31T00:14:45.643Z,94.97
2023-01-31T00:16:48.603Z,94.63
2023-01-31T00:18:51.441Z,94.80
2023-01-31T00:20:54.084Z,94.71
2023-01-31T00:22:56.713Z,94.28
2023-01-31T00:24:59.415Z,94.00
2023-01-31T00:27:02.044Z,94.01
2023-01-31T00:29:06.101Z,94.25
2023-01-31T00:31:09.038Z,93.83
2023-01-31T00:33:11.715Z,94.29
2023-01-31T00:35:14.305Z,93.58
2023-01-31T00:37:17.072Z,93.43
2023-01-31T00:39:19.660Z,94.01
2023-01-31T00:41:24.636Z,93.80
2023-01-31T00:43:27.423Z,93.22
2023-01-31T00:45:30.052Z,93.33
2023-01-31T00:47:32.793Z,93.61
2023-01-31T00:49:35.712Z,93.50
2023-01-31T00:51:38.753Z,93.41
2023-01-31T00:53:41.557Z,93.36
2023-01-31T00:55:45.273Z,93.41
2023-01-31T00:57:47.855Z,93.10
2023-01-31T00:59:50.470Z,93.31
2023-01-31T01:01:53.053Z,93.10
2023-01-31T01:03:57.842Z,92.83
2023-01-31T01:06:00.505Z,92.72
2023-01-31T01:08:03.056Z,92.83
2023-01-31T01:10:06.541Z,93.43
2023-01-31T01:12:09.119Z,93.35
2023-01-31T01:14:11.705Z,92.93
2023-01-31T01:16:20.821Z,92.67
2023-01-31T01:18:23.489Z,92.91
2023-01-31T01:20:26.155Z,92.79
2023-01-31T01:22:29.137Z,92.95
2023-01-31T01:24:31.840Z,92.89
2023-01-31T01:26:36.095Z,93.30
2023-01-31T01:28:39.223Z,92.86
2023-01-31T01:30:41.774Z,92.79
2023-01-31T01:32:44.463Z,93.59
2023-01-31T01:34:47.735Z,93.37
2023-01-31T01:36:50.503Z,93.63
2023-01-31T01:38:53.783Z,93.55
2023-01-31T01:40:56.478Z,93.76
2023-01-31T01:42:59.073Z,93.23
2023-01-31T01:45:04.890Z,93.24
2023-01-31T01:47:32.541Z,93.69
2023-01-31T01:49:37.963Z,93.89
2023-01-31T01:51:42.147Z,93.54
2023-01-31T01:53:46.971Z,93.57
2023-01-31T01:55:55.436Z,93.85
2023-01-31T01:58:04.848Z,94.24
2023-01-31T02:00:29.996Z,93.94
2023-01-31T02:02:32.802Z,94.45
2023-01-31T02:04:39.528Z,94.66
2023-01-31T02:06:42.610Z,95.02
2023-01-31T02:08:45.627Z,94.37
2023-01-31T02:10:54.193Z,94.45
2023-01-31T02:12:57.121Z,94.63
2023-01-31T02:15:00.318Z,94.52
2023-01-31T02:17:02.859Z,94.86
2023-01-31T02:19:14.894Z,94.42
2023-01-31T02:21:46.670Z,94.47
2023-01-31T02:24:10.394Z,94.44
2023-01-31T02:26:40.703Z,94.96
2023-01-31T02:28:57.932Z,94.76
2023-01-31T02:31:28.458Z,94.34
2023-01-31T02:33:45.328Z,95.43
2023-01-31T02:36:01.658Z,95.32
2023-01-31T02:38:10.101Z,94.96
2023-01-31T02:40:15.482Z,94.88
2023-01-31T02:42:44.108Z,95.35
2023-01-31T02:45:09.624Z,95.11
2023-01-31T02:47:30.759Z,95.48
2023-01-31T02:49:45.649Z,95.55
2023-01-31T02:52:11.420Z,95.26
2023-01-31T02:54:24.238Z,95.24
2023-01-31T02:56:31.837Z,95.43
2023-01-31T02:58:38.266Z,95.16
2023-01-31T03:00:45.534Z,95.34
2023-01-31T03:02:48.414Z,95.31
2023-01-31T03:04:51.099Z,95.36
2023-01-31T03:07:02.430Z,95.37
2023-01-31T03:09:05.060Z,95.03
2023-01-31T03:11:09.631Z,95.22
2023-01-31T03:13:31.741Z,95.13
2023-01-31T03:16:07.619Z,95.24
2023-01-31T03:18:16.800Z,95.73
2023-01-31T03:20:30.102Z,95.71
2023-01-31T03:22:43.893Z,95.28
2023-01-31T03:24:48.985Z,95.65
2023-01-31T03:26:54.168Z,95.58
2023-01-31T03:29:01.108Z,95.31
2023-01-31T03:31:17.578Z,95.55
2023-01-31T03:33:26.792Z,96.06
2023-01-31T03:35:33.994Z,95.96
2023-01-31T03:37:56.115Z,95.83
2023-01-31T03:40:24.775Z,95.60
2023-01-31T03:42:39.402Z,95.85
2023-01-31T03:44:56.719Z,95.80
2023-01-31T03:47:07.190Z,95.85
2023-01-31T03:49:14.041Z,95.65
2023-01-31T03:51:23.428Z,95.58
2023-01-31T03:53:34.830Z,95.87
2023-01-31T03:55:43.470Z,95.12
2023-01-31T03:57:54.595Z,95.12
2023-01-31T04:00:00.299Z,94.66
2023-01-31T04:02:06.704Z,94.29
2023-01-31T04:04:14.974Z,94.53
2023-01-31T04:06:17.632Z,93.26
2023-01-31T04:08:21.313Z,92.61
2023-01-31T04:10:25.560Z,91.93
2023-01-31T04:12:28.213Z,90.97
2023-01-31T04:14:31.020Z,90.42
2023-01-31T04:16:33.928Z,89.99
2023-01-31T04:18:38.006Z,88.73
2023-01-31T04:20:41.268Z,88.52
2023-01-31T04:22:43.931Z,87.52
2023-01-31T04:24:46.496Z,87.00
2023-01-31T04:26:49.265Z,85.88
2023-01-31T04:28:52.336Z,86.12
2023-01-31T04:30:56.135Z,85.34
2023-01-31T04:32:58.715Z,86.03
2023-01-31T04:35:02.439Z,86.01
2023-01-31T04:37:06.078Z,86.18
2023-01-31T04:39:11.151Z,85.55
2023-01-31T04:41:13.823Z,85.59
2023-01-31T04:43:16.766Z,85.04
2023-01-31T04:45:19.642Z,84.44
2023-01-31T04:47:22.338Z,84.86
2023-01-31T04:49:24.904Z,85.12
2023-01-31T04:51:27.587Z,85.42
2023-01-31T04:53:30.149Z,85.10
2023-01-31T04:55:32.949Z,85.16
2023-01-31T04:57:35.604Z,85.06
2023-01-31T04:59:38.153Z,84.49
2023-01-31T05:01:42.353Z,85.29
2023-01-31T05:03:45.010Z,85.19
2023-01-31T05:05:51.413Z,85.40
2023-01-31T05:07:54.015Z,85.19
2023-01-31T05:09:56.596Z,85.80
2023-01-31T05:11:59.490Z,85.46
2023-01-31T05:14:02.121Z,85.94
2023-01-31T05:16:12.251Z,85.53
2023-01-31T05:18:14.937Z,85.09
2023-01-31T05:20:17.661Z,85.54
2023-01-31T05:22:22.777Z,85.54
2023-01-31T05:24:28.153Z,85.52
2023-01-31T05:26:31.501Z,86.05
2023-01-31T05:28:34.205Z,86.06
2023-01-31T05:30:37.436Z,86.54
2023-01-31T05:32:40.316Z,86.56
2023-01-31T05:34:42.939Z,86.59
2023-01-31T05:36:45.549Z,86.19
2023-01-31T05:38:49.171Z,86.85
2023-01-31T05:40:51.793Z,86.90
2023-01-31T05:43:01.730Z,86.96
2023-01-31T05:45:05.179Z,87.00
2023-01-31T05:47:07.832Z,87.00
2023-01-31T05:49:10.575Z,86.93
2023-01-31T05:51:13.191Z,87.03
2023-01-31T05:53:15.835Z,87.43
2023-01-31T05:55:19.152Z,88.02
2023-01-31T05:57:21.974Z,88.04
2023-01-31T05:59:26.547Z,87.96
2023-01-31T06:01:29.878Z,87.73
2023-01-31T06:03:32.589Z,88.01
2023-01-31T06:05:35.334Z,89.41
2023-01-31T06:07:39.138Z,88.53
2023-01-31T06:09:42.159Z,89.42
2023-01-31T06:11:44.919Z,90.13
2023-01-31T06:13:49.526Z,90.01
2023-01-31T06:15:52.257Z,90.57
2023-01-31T06:17:54.971Z,90.42
2023-01-31T06:19:57.870Z,90.05
2023-01-31T06:22:00.455Z,90.44
2023-01-31T06:24:03.405Z,91.15
2023-01-31T06:26:06.057Z,91.31
2023-01-31T06:28:08.990Z,91.25
2023-01-31T06:30:12.390Z,91.31
2023-01-31T06:32:15.082Z,91.15
2023-01-31T06:34:17.783Z,92.04
2023-01-31T06:36:20.398Z,91.66
2023-01-31T06:38:23.140Z,91.79
2023-01-31T06:40:25.857Z,92.22
2023-01-31T06:42:28.719Z,91.57
2023-01-31T06:44:33.433Z,92.45
2023-01-31T06:46:36.840Z,92.23
2023-01-31T06:48:39.555Z,92.51
2023-01-31T06:50:42.977Z,92.11
2023-01-31T06:52:45.622Z,92.33
2023-01-31T06:54:48.255Z,92.49
2023-01-31T06:56:50.873Z,92.06
2023-01-31T06:58:53.722Z,92.38
2023-01-31T07:00:56.901Z,92.33
2023-01-31T07:02:59.596Z,92.44
2023-01-31T07:05:02.259Z,92.27
2023-01-31T07:07:06.038Z,91.97
2023-01-31T07:09:08.713Z,91.93
2023-01-31T07:11:11.367Z,92.34
2023-01-31T07:13:14.278Z,92.27
2023-01-31T07:15:17.126Z,91.74
2023-01-31T07:17:21.346Z,92.31
2023-01-31T07:19:24.020Z,91.89
2023-01-31T07:21:26.784Z,92.42
2023-01-31T07:23:30.059Z,92.19
2023-01-31T07:25:34.285Z,92.06
2023-01-31T07:27:36.917Z,91.98
2023-01-31T07:29:39.663Z,91.51
2023-01-31T07:31:42.313Z,91.30
2023-01-31T07:33:45.065Z,91.02
2023-01-31T07:35:47.735Z,91.12
2023-01-31T07:37:53.574Z,90.62
2023-01-31T07:39:56.224Z,89.84
2023-01-31T07:41:58.833Z,89.71
2023-01-31T07:44:01.483Z,89.31
2023-01-31T07:46:09.625Z,90.17
2023-01-31T07:48:12.478Z,89.31
2023-01-31T07:50:15.048Z,89.24
2023-01-31T07:52:17.650Z,89.16
2023-01-31T07:54:20.251Z,88.86
2023-01-31T07:56:22.948Z,89.02
2023-01-31T07:58:25.600Z,87.97
2023-01-31T08:00:47.026Z,87.97
2023-01-31T08:03:08.354Z,87.58
2023-01-31T08:05:14.012Z,87.46
2023-01-31T08:07:17.157Z,87.39
2023-01-31T08:09:19.855Z,87.04
2023-01-31T08:11:22.787Z,87.07
2023-01-31T08:13:27.219Z,87.16
2023-01-31T08:15:29.887Z,87.28
2023-01-31T08:17:32.908Z,88.04
2023-01-31T08:19:36.316Z,87.85
2023-01-31T08:21:39.080Z,87.71
2023-01-31T08:23:42.377Z,87.31
2023-01-31T08:25:45.515Z,87.05
2023-01-31T08:27:48.186Z,87.18
2023-01-31T08:29:51.034Z,86.70
2023-01-31T08:31:53.991Z,87.31
2023-01-31T08:33:57.553Z,87.13
2023-01-31T08:36:16.680Z,86.87
2023-01-31T08:38:19.410Z,87.76
2023-01-31T08:40:22.074Z,86.67
2023-01-31T08:42:24.750Z,86.92
2023-01-31T08:44:27.424Z,86.17
2023-01-31T08:46:36.062Z,86.37
2023-01-31T08:48:39.817Z,85.93
2023-01-31T08:50:42.674Z,86.63
2023-01-31T08:52:45.231Z,85.93
2023-01-31T08:54:47.818Z,85.61
2023-01-31T08:56:50.472Z,85.28
2023-01-31T08:58:54.656Z,85.16
2023-01-31T09:01:02.939Z,85.54
2023-01-31T09:03:05.562Z,84.83
2023-01-31T09:05:31.106Z,84.80
2023-01-31T09:07:34.169Z,84.84
2023-01-31T09:09:36.800Z,85.60
2023-01-31T09:11:39.862Z,86.58
2023-01-31T09:13:42.848Z,86.87
2023-01-31T09:15:45.775Z,86.53
2023-01-31T09:17:48.552Z,86.54
2023-01-31T09:19:51.213Z,87.62
2023-01-31T09:21:53.793Z,87.41
2023-01-31T09:24:02.842Z,87.50
2023-01-31T09:26:06.043Z,87.84
2023-01-31T09:28:08.598Z,87.33
2023-01-31T09:30:11.948Z,88.16
2023-01-31T09:32:14.600Z,87.46
2023-01-31T09:34:17.444Z,87.51
2023-01-31T09:36:23.083Z,87.90
2023-01-31T09:38:26.065Z,88.70
2023-01-31T09:40:34.049Z,88.57
2023-01-31T09:42:42.958Z,88.21
2023-01-31T09:44:57.325Z,89.57
2023-01-31T09:47:11.489Z,90.13
2023-01-31T09:49:21.887Z,89.52
2023-01-31T09:51:24.953Z,89.84
2023-01-31T09:53:34.794Z,90.77
2023-01-31T09:55:50.837Z,90.48
2023-01-31T09:58:20.227Z,90.96
2023-01-31T10:00:29.291Z,90.95
2023-01-31T10:03:07.358Z,90.95
2023-01-31T10:05:36.284Z,91.73
2023-01-31T10:07:46.031Z,91.69
2023-01-31T10:09:54.417Z,91.77
2023-01-31T10:12:01.378Z,91.97
2023-01-31T10:14:31.689Z,91.82
2023-01-31T10:16:49.551Z,92.81
2023-01-31T10:19:02.237Z,93.48
2023-01-31T10:21:17.803Z,93.80
2023-01-31T10:23:26.304Z,93.75
2023-01-31T10:25:47.029Z,94.02
2023-01-31T10:27:59.271Z,94.00
2023-01-31T10:30:04.734Z,93.73
2023-01-31T10:32:35.439Z,93.64
2023-01-31T10:34:47.785Z,94.46
2023-01-31T10:36:57.809Z,94.57
2023-01-31T10:39:23.955Z,94.88
2023-01-31T10:42:03.364Z,94.34
2023-01-31T10:44:21.316Z,94.72
2023-01-31T10:46:24.006Z,95.00
2023-01-31T10:48:30.462Z,94.44
2023-01-31T10:50:56.774Z,95.19
2023-01-31T10:53:02.456Z,95.68
2023-01-31T10:55:38.771Z,95.68
2023-01-31T10:57:42.500Z,95.18
2023-01-31T10:59:48.615Z,95.58
2023-01-31T11:01:51.517Z,95.66
2023-01-31T11:03:56.287Z,95.04
2023-01-31T11:05:59.032Z,95.24
2023-01-31T11:08:17.919Z,95.23
2023-01-31T11:10:24.016Z,95.01
2023-01-31T11:12:53.645Z,95.73
2023-01-31T11:15:12.059Z,95.62
2023-01-31T11:17:22.296Z,95.29
2023-01-31T11:19:40.945Z,96.16
2023-01-31T11:21:50.687Z,95.56
2023-01-31T11:24:06.270Z,95.67
2023-01-31T11:26:09.784Z,95.80
2023-01-31T11:28:28.744Z,95.77
2023-01-31T11:30:41.198Z,96.00
2023-01-31T11:32:44.883Z,96.31
2023-01-31T11:35:06.112Z,96.59
2023-01-31T11:37:17.467Z,96.84
2023-01-31T11:39:38.537Z,96.23
2023-01-31T11:41:41.827Z,96.17
2023-01-31T11:43:44.455Z,96.80
2023-01-31T11:45:59.080Z,96.59
2023-01-31T11:48:17.943Z,96.46
2023-01-31T11:50:37.670Z,96.95
2023-01-31T11:52:40.363Z,96.60
2023-01-31T11:54:56.712Z,96.76
2023-01-31T11:57:01.129Z,97.07
2023-01-31T11:59:19.760Z,97.52
2023-01-31T12:01:25.019Z,97.30
2023-01-31T12:03:29.077Z,97.25
2023-01-31T12:05:43.357Z,97.62
2023-01-31T12:07:53.578Z,97.70
2023-01-31T12:09:56.532Z,97.45
2023-01-31T12:12:07.731Z,97.81
2023-01-31T12:14:16.254Z,98.44
2023-01-31T12:16:22.927Z,97.65
2023-01-31T12:18:40.273Z,98.30
2023-01-31T12:20:53.611Z,98.52
2023-01-31T12:23:24.760Z,98.07
2023-01-31T12:25:39.189Z,98.19
2023-01-31T12:28:03.178Z,98.25
2023-01-31T12:30:53.898Z,98.89
2023-01-31T12:33:03.080Z,99.17
2023-01-31T12:35:21.657Z,98.87
2023-01-31T12:37:39.991Z,99.24
2023-01-31T12:40:24.261Z,99.27
2023-01-31T12:42:43.536Z,99.57
2023-01-31T12:44:50.408Z,99.75
2023-01-31T12:47:09.976Z,99.31
2023-01-31T12:49:37.329Z,99.58
2023-01-31T12:51:42.974Z,99.22
2023-01-31T12:54:03.072Z,99.51
2023-01-31T12:56:30.820Z,100.00
2023-01-31T12:58:47.416Z,100.00
2023-01-31T13:00:59.074Z,99.81
2023-01-31T13:03:07.579Z,100.00
2023-01-31T13:05:31.507Z,100.00
2023-01-31T13:07:44.985Z,100.00
2023-01-31T13:09:52.279Z,100.00
2023-01-31T13:12:07.764Z,100.00
2023-01-31T13:14:20.147Z,100.00
2023-01-31T13:16:28.485Z,100.00
2023-01-31T13:18:35.404Z,100.00
2023-01-31T13:20:54.720Z,100.00
2023-01-31T13:23:04.230Z,100.00
2023-01-31T13:25:16.020Z,100.00
2023-01-31T13:27:26.955Z,100.00
2023-01-31T13:29:35.432Z,100.00
2023-01-31T13:31:47.488Z,100.00
2023-01-31T13:34:00.802Z,100.00
2023-01-31T13:36:30.840Z,100.00
2023-01-31T13:38:43.423Z,100.00
2023-01-31T13:40:55.062Z,100.00
2023-01-31T13:43:07.243Z,100.00
2023-01-31T13:45:22.126Z,100.00
2023-01-31T13:47:30.472Z,100.00
2023-01-31T13:49:41.428Z,100.00
2023-01-31T13:51:52.966Z,100.00
2023-01-31T13:53:59.322Z,100.00
2023-01-31T13:56:05.288Z,100.00
2023-01-31T13:58:22.880Z,100.00
2023-01-31T14:00:47.423Z,100.00
2023-01-31T14:03:13.409Z,100.00
2023-01-31T14:05:50.450Z,100.00
2023-01-31T14:08:30.268Z,100.00
2023-01-31T14:10:38.221Z,100.00
2023-01-31T14:12:40.992Z,100.00
2023-01-31T14:14:51.533Z,100.00
2023-01-31T14:16:54.248Z,100.00
2023-01-31T14:18:56.879Z,100.00
2023-01-31T14:21:31.465Z,100.00
2023-01-31T14:23:47.457Z,100.00
2023-01-31T14:25:50.226Z,100.00
2023-01-31T14:27:52.728Z,100.00
2023-01-31T14:30:05.791Z,100.00
2023-01-31T14:32:25.703Z,100.00
2023-01-31T14:34:31.032Z,100.00
2023-01-31T14:37:18.484Z,100.00
2023-01-31T14:39:26.956Z,100.00
2023-01-31T14:41:51.124Z,100.00
2023-01-31T14:44:07.304Z,100.00
2023-01-31T14:46:21.384Z,100.00
2023-01-31T14:49:02.294Z,100.00
2023-01-31T14:51:16.029Z,100.00
2023-01-31T14:53:33.931Z,100.00
2023-01-31T14:55:44.910Z,100.00
2023-01-31T14:57:51.757Z,100.00
2023-01-31T14:59:54.395Z,100.00
2023-01-31T15:02:01.177Z,100.00
2023-01-31T15:04:06.030Z,100.00
2023-01-31T15:06:30.882Z,100.00
2023-01-31T15:08:39.085Z,100.00
2023-01-31T15:11:04.752Z,100.00
2023-01-31T15:13:35.114Z,100.00
2023-01-31T15:15:40.838Z,100.00
2023-01-31T15:17:43.593Z,100.00
2023-01-31T15:19:52.079Z,100.00
2023-01-31T15:22:02.643Z,100.00
2023-01-31T15:24:06.788Z,100.00
2023-01-31T15:26:11.450Z,100.00
2023-01-31T15:28:17.586Z,100.00
2023-01-31T15:30:22.302Z,100.00
2023-01-31T15:32:28.334Z,100.00
2023-01-31T15:34:40.560Z,100.00
2023-01-31T15:37:25.586Z,100.00
2023-01-31T15:39:44.098Z,100.00
2023-01-31T15:41:46.997Z,100.00
2023-01-31T15:43:53.466Z,100.00
2023-01-31T15:45:56.148Z,100.00
2023-01-31T15:48:01.699Z,100.00
2023-01-31T15:50:14.860Z,100.00
2023-01-31T15:52:20.715Z,100.00
2023-01-31T15:54:23.398Z,100.00
2023-01-31T15:56:27.572Z,100.00
2023-01-31T15:58:32.646Z,100.00
2023-01-31T16:00:38.657Z,100.00
2023-01-31T16:02:41.866Z,100.00
2023-01-31T16:04:44.524Z,100.00
2023-01-31T16:06:47.744Z,100.00
2023-01-31T16:09:00.898Z,100.00
2023-01-31T16:11:07.656Z,100.00
2023-01-31T16:13:10.395Z,100.00
2023-01-31T16:15:21.397Z,100.00
2023-01-31T16:17:25.883Z,100.00
2023-01-31T16:19:31.556Z,100.00
2023-01-31T16:21:45.650Z,99.99
2023-01-31T16:24:16.360Z,100.00
2023-01-31T16:26:27.765Z,100.00
2023-01-31T16:28:38.686Z,100.00
2023-01-31T16:30:44.112Z,100.00
2023-01-31T16:32:51.628Z,100.00
2023-01-31T16:35:01.282Z,100.00
2023-01-31T16:37:10.136Z,100.00
2023-01-31T16:39:24.266Z,100.00
2023-01-31T16:41:52.103Z,100.00
2023-01-31T16:43:56.149Z,100.00
2023-01-31T16:46:09.156Z,100.00
2023-01-31T16:48:23.372Z,100.00
2023-01-31T16:50:42.956Z,100.00
2023-01-31T16:52:48.950Z,100.00
2023-01-31T16:54:53.990Z,100.00
2023-01-31T16:57:02.355Z,100.00
2023-01-31T16:59:05.079Z,100.00
2023-01-31T17:01:16.710Z,99.94
2023-01-31T17:03:20.068Z,100.00
2023-01-31T17:05:25.807Z,100.00
2023-01-31T17:07:30.478Z,100.00
2023-01-31T17:09:35.663Z,100.00
2023-01-31T17:11:43.274Z,100.00
2023-01-31T17:13:46.634Z,100.00
2023-01-31T17:15:50.179Z,100.00
2023-01-31T17:17:52.861Z,100.00
2023-01-31T17:19:56.260Z,99.85
2023-01-31T17:22:00.276Z,100.00
2023-01-31T17:24:03.050Z,100.00
2023-01-31T17:26:05.765Z,100.00
2023-01-31T17:28:08.734Z,99.81
2023-01-31T17:30:12.471Z,100.00
2023-01-31T17:32:20.316Z,99.95
2023-01-31T17:34:23.085Z,99.59
2023-01-31T17:36:25.951Z,99.77
2023-01-31T17:38:28.604Z,99.97
2023-01-31T17:40:31.624Z,99.31
2023-01-31T17:42:34.356Z,99.79
2023-01-31T17:44:36.995Z,99.59
2023-01-31T17:46:40.023Z,99.83
2023-01-31T17:48:42.952Z,99.50
2023-01-31T17:50:46.614Z,99.74
2023-01-31T17:52:51.152Z,100.00
2023-01-31T17:54:54.051Z,99.94
2023-01-31T17:56:57.290Z,100.00
2023-01-31T17:58:59.978Z,99.20
2023-01-31T18:01:02.662Z,99.75
2023-01-31T18:03:05.554Z,99.83
2023-01-31T18:05:12.824Z,99.64
2023-01-31T18:07:17.020Z,100.00
2023-01-31T18:09:20.708Z,100.00
2023-01-31T18:11:23.517Z,99.85
2023-01-31T18:13:26.138Z,100.00
2023-01-31T18:15:28.792Z,100.00
2023-01-31T18:17:31.748Z,99.92
2023-01-31T18:19:34.946Z,100.00
2023-01-31T18:21:41.439Z,100.00
2023-01-31T18:23:50.578Z,100.00
2023-01-31T18:25:53.434Z,100.00
2023-01-31T18:27:56.165Z,100.00
2023-01-31T18:29:58.933Z,100.00
2023-01-31T18:32:03.517Z,100.00
2023-01-31T18:34:06.250Z,100.00
2023-01-31T18:36:13.564Z,100.00
2023-01-31T18:38:16.301Z,100.00
2023-01-31T18:40:19.075Z,100.00
2023-01-31T18:42:22.225Z,100.00
2023-01-31T18:44:25.612Z,100.00
2023-01-31T18:46:29.341Z,100.00
2023-01-31T18:48:32.958Z,100.00
2023-01-31T18:50:35.719Z,100.00
2023-01-31T18:52:42.412Z,100.00
2023-01-31T18:54:49.187Z,100.00
2023-01-31T18:56:51.866Z,100.00
2023-01-31T18:58:54.801Z,100.00
2023-01-31T19:01:14.982Z,100.00
2023-01-31T19:03:17.836Z,100.00
2023-01-31T19:05:21.934Z,100.00
2023-01-31T19:07:24.701Z,100.00
2023-01-31T19:09:27.380Z,100.00
2023-01-31T19:11:30.720Z,100.00
2023-01-31T19:13:36.307Z,99.99
2023-01-31T19:15:39.099Z,100.00
2023-01-31T19:17:44.523Z,100.00
2023-01-31T19:19:47.129Z,100.00
2023-01-31T19:21:49.775Z,100.00
2023-01-31T19:23:55.687Z,99.67
2023-01-31T19:25:58.416Z,99.71
2023-01-31T19:28:01.362Z,99.80
2023-01-31T19:30:04.813Z,99.68
2023-01-31T19:32:07.671Z,99.94
2023-01-31T19:34:11.565Z,99.93
2023-01-31T19:36:16.815Z,99.89
2023-01-31T19:38:19.487Z,99.50
2023-01-31T19:40:22.455Z,99.12
2023-01-31T19:42:25.718Z,99.48
2023-01-31T19:44:28.361Z,99.82
2023-01-31T19:46:35.562Z,99.89
2023-01-31T19:48:38.185Z,99.41
2023-01-31T19:50:41.951Z,99.11
2023-01-31T19:52:44.789Z,98.90
2023-01-31T19:54:47.464Z,99.68
2023-01-31T19:56:50.338Z,99.61
2023-01-31T19:58:53.078Z,99.27
2023-01-31T20:00:55.812Z,99.49
2023-01-31T20:02:58.471Z,99.13
2023-01-31T20:05:01.105Z,99.58
2023-01-31T20:07:03.908Z,99.13
2023-01-31T20:09:07.757Z,99.23
2023-01-31T20:11:10.735Z,99.45
2023-01-31T20:13:13.511Z,99.61
2023-01-31T20:15:16.298Z,99.59
2023-01-31T20:17:19.012Z,99.00
2023-01-31T20:19:22.724Z,99.81
2023-01-31T20:21:25.720Z,99.48
2023-01-31T20:23:29.526Z,99.55
2023-01-31T20:25:33.571Z,99.61
2023-01-31T20:27:36.723Z,99.55
2023-01-31T20:29:39.584Z,99.43
2023-01-31T20:31:42.838Z,99.61
2023-01-31T20:33:45.869Z,99.95
2023-01-31T20:35:50.056Z,99.70
2023-01-31T20:37:53.034Z,99.57
2023-01-31T20:39:56.222Z,99.32
2023-01-31T20:41:59.007Z,99.97
2023-01-31T20:44:01.769Z,99.97
2023-01-31T20:46:13.142Z,99.64
2023-01-31T20:48:15.887Z,99.98
2023-01-31T20:50:18.962Z,99.77
2023-01-31T20:52:21.767Z,99.89
2023-01-31T20:54:24.675Z,100.00
2023-01-31T20:56:30.641Z,100.00
2023-01-31T20:58:37.945Z,99.98
2023-01-31T21:00:41.376Z,99.88
2023-01-31T21:02:46.910Z,100.00
2023-01-31T21:04:52.180Z,100.00
2023-01-31T21:06:58.444Z,99.96
2023-01-31T21:09:03.217Z,100.00
2023-01-31T21:11:11.138Z,100.00
2023-01-31T21:13:14.061Z,100.00
2023-01-31T21:15:16.901Z,100.00
2023-01-31T21:17:27.488Z,100.00
2023-01-31T21:19:37.921Z,100.00
2023-01-31T21:21:40.634Z,100.00
2023-01-31T21:23:43.393Z,100.00
2023-01-31T21:25:47.502Z,100.00
2023-01-31T21:27:51.157Z,100.00
2023-01-31T21:29:53.974Z,100.00
2023-01-31T21:31:56.921Z,100.00
2023-01-31T21:34:05.626Z,100.00
2023-01-31T21:36:09.957Z,100.00
2023-01-31T21:38:12.692Z,100.00
2023-01-31T21:40:16.033Z,100.00
2023-01-31T21:42:19.797Z,100.00
2023-01-31T21:44:22.546Z,100.00
2023-01-31T21:46:26.127Z,100.00
2023-01-31T21:48:32.365Z,100.00
2023-01-31T21:50:34.955Z,100.00
2023-01-31T21:52:37.562Z,100.00
2023-01-31T21:54:40.347Z,100.00
2023-01-31T21:56:43.011Z,100.00
2023-01-31T21:58:46.374Z,100.00
2023-01-31T22:00:49.129Z,100.00
2023-01-31T22:02:52.809Z,100.00
2023-01-31T22:04:55.467Z,100.00
2023-01-31T22:06:58.227Z,100.00
2023-01-31T22:09:02.218Z,100.00
2023-01-31T22:11:10.943Z,100.00
2023-01-31T22:13:13.856Z,100.00
2023-01-31T22:15:16.555Z,100.00
2023-01-31T22:17:19.231Z,100.00
2023-01-31T22:19:21.998Z,100.00
2023-01-31T22:21:28.127Z,100.00
2023-01-31T22:23:31.353Z,100.00
2023-01-31T22:25:37.011Z,100.00
2023-01-31T22:27:39.649Z,100.00
2023-01-31T22:29:42.287Z,100.00
2023-01-31T22:31:45.025Z,100.00
2023-01-31T22:33:48.003Z,100.00
2023-01-31T22:35:51.476Z,100.00
2023-01-31T22:37:54.385Z,100.00
2023-01-31T22:39:57.010Z,100.00
2023-01-31T22:41:59.590Z,100.00
2023-01-31T22:44:02.271Z,100.00
2023-01-31T22:46:06.374Z,100.00
2023-01-31T22:48:09.065Z,100.00
2023-01-31T22:50:11.784Z,100.00
2023-01-31T22:52:14.461Z,100.00
2023-01-31T22:54:18.670Z,100.00
2023-01-31T22:56:24.676Z,100.00
2023-01-31T22:58:27.490Z,100.00
2023-01-31T23:00:30.158Z,100.00
2023-01-31T23:02:32.890Z,100.00
2023-01-31T23:04:35.617Z,100.00
2023-01-31T23:06:38.720Z,100.00
2023-01-31T23:08:42.687Z,100.00
2023-01-31T23:10:45.868Z,100.00
2023-01-31T23:12:48.531Z,100.00
2023-01-31T23:14:51.184Z,100.00
2023-01-31T23:17:12.221Z,100.00
2023-01-31T23:19:16.235Z,100.00
2023-01-31T23:21:19.471Z,100.00
2023-01-31T23:23:22.155Z,100.00
2023-01-31T23:25:27.188Z,100.00
2023-01-31T23:27:29.840Z,100.00
2023-01-31T23:29:32.502Z,100.00
2023-01-31T23:31:35.465Z,100.00
2023-01-31T23:33:38.091Z,100.00
2023-01-31T23:35:40.900Z,100.00
2023-01-31T23:37:43.979Z,100.00
2023-01-31T23:39:49.193Z,100.00
2023-01-31T23:41:51.791Z,100.00
2023-01-31T23:43:54.426Z,100.00
2023-01-31T23:45:57.051Z,100.00
2023-01-31T23:47:59.774Z,100.00
2023-01-31T23:50:02.366Z,100.00
2023-01-31T23:52:07.788Z,100.00
2023-01-31T23:54:10.813Z,100.00
2023-01-31T23:56:13.494Z,100.00
2023-01-31T23:58:16.110Z,100.00
